x

Cape Elizabeth- 45nm Nw Of Aberdeen, Wa (46041) Wave Buoy

4:50am - Thu 27th Apr 2017 All times are PDT. -7 hours from GMT.

  • Sig Wave height 9.2ft
  • Swell Direction
  • Peak Period 11s
  • Average Period 7s
  • Wind
    11mph, 13mph gusts
  • Sea Temp 51°f
  • Air Temp 47°f
  • Sea Pressure 1018mb
  • Cape Elizabeth- 45nm Nw Of Aberdeen, Wa
  • Cape Elizabeth- 45nm Nw Of Aberdeen, Wa

More Historic Weather Station data

Upgrade to MSW Pro to gain access to the past 30 days of data for over 8000 Wavebouys and Weather Stations around the globe.

Join Pro

Comparision Forecast

View Surf forecast
   
Thu 04/27 4:50am 9ft 11s 7s 11 13 mph 1018mb 51f 47f
3:50am 10ft 11s 8s 11 13 mph 1017.6mb 51f 48f
2:50am 10ft 10s 8s 13 18 mph 1017.5mb 51f 48f
1:50am 9ft 11s 7s 18 20 mph 1017.3mb 51f 48f
12:50am 9ft 11s 7s 16 25 mph 1017.1mb 51f 47f
Wed 04/26 11:50pm 9ft 11s 7s 16 20 mph 1016.8mb 51f 49f
10:50pm 9ft 11s 7s 20 22 mph 1016.5mb 51f 49f
9:50pm 10ft 11s 7s 16 20 mph 1016.7mb 51f 47f
8:50pm 9.5ft 9s 7s 20 25 mph 1015.8mb 51f 49f
7:50pm 10ft 10s 7s 20 22 mph 1015.4mb 52f 49f
6:50pm 10ft 9s 7s 18 20 mph 1015.1mb 52f 49f
4:50pm 9ft 9s 7s 16 20 mph 1014.5mb 51f 49f
3:50pm 8ft 10s 7s 16 18 mph 1013.9mb 51f 48f
2:50pm 8ft 9s 7s 13 18 mph 1013.7mb 51f 48f
1:50pm 8ft 8s 6s 16 18 mph 1013.2mb 51f 48f
12:50pm 7.5ft 8s 7s 16 20 mph 1012.8mb 51f 49f
11:50am 7.5ft 8s 6s 13 18 mph 1011.8mb 51f 50f
10:50am 8ft 8s 6s 13 16 mph 1011.7mb 51f 49f
9:50am 7ft 8s 7s 16 20 mph 1011.2mb 51f 49f
8:50am 7ft 8s 6s 13 18 mph 1010.6mb 51f 49f
7:50am 6.5ft 9s 6s 16 18 mph 1010.2mb 51f 49f
6:50am 7ft 8s 7s 18 22 mph 1009.6mb 51f 48f
5:50am 6ft 8s 6s 16 20 mph 1009.3mb 51f 49f
4:50am 7ft 8s 6s 18 20 mph 1009.3mb 51f 48f
3:50am 6ft 9s 6s 13 18 mph 1009.3mb 51f 49f
2:50am 6ft 8s 6s 18 20 mph 1009mb 51f 48f
1:50am 7ft 8s 6s 18 22 mph 1009mb 51f 49f
12:50am 6.5ft 9s 6s 18 20 mph 1008.5mb 51f 49f
Tue 04/25 11:50pm 6.5ft 8s 6s 18 22 mph 1008.3mb 51f 49f
10:50pm 7ft 8s 6s 20 25 mph 1007.9mb 51f 49f
9:50pm 6.5ft 8s 6s 16 18 mph 1007mb 51f 50f
8:50pm 7ft 8s 6s 16 18 mph 1006.3mb 51f 50f
7:50pm 6.5ft 7s 5s 25 29 mph 1005.8mb 51f 49f
6:50pm 6.5ft 6s 5s 27 31 mph 1005.9mb 51f 49f
5:50pm 6ft 10s 5s 27 34 mph 1006.3mb 51f 49f
4:50pm 6ft 10s 5s 27 34 mph 1007.3mb 51f 50f
3:50pm 6.5ft 10s 5s 25 31 mph 1008mb 51f 50f
2:50pm 6.5ft 10s 6s 25 29 mph 1009.2mb 51f 50f
1:50pm 7ft 9s 6s 25 29 mph 1010.1mb 51f 49f
12:50pm 7ft 9s 6s 25 29 mph 1011mb 51f 49f
11:50am 7ft 9s 6s 22 29 mph 1011.8mb 51f 50f
10:50am 7ft 9s 6s 25 29 mph 1011.9mb 51f 50f
9:50am 6.5ft 9s 6s 22 27 mph 1012.2mb 51f 49f
8:50am 7ft 9s 7s 18 22 mph 1011.9mb 51f 49f
7:50am 6.5ft 9s 7s 18 22 mph 1012.4mb 51f 49f
6:50am 6ft 9s 7s 16 18 mph 1013.6mb 51f 50f
5:50am 6ft 10s 7s 16 20 mph 1013.5mb 51f 50f
4:50am 6ft 10s 7s 16 18 mph 1013mb 51f 50f
3:50am 5.5ft 10s  -  13 16 mph 1013.2mb 51f 50f
2:50am 6ft 9s 7s 9 11 mph 1013.6mb 52f 50f
1:50am 6ft 11s 8s 13 16 mph 1014mb 52f 50f
12:50am 6.5ft 9s 8s 9 11 mph 1013.4mb 52f 50f
Mon 04/24 11:50pm 7ft 10s 8s 4 7 mph 1013.4mb 52f 50f
10:50pm 7ft 11s 7s 7
mph
1012.8mb 51f 50f
9:50pm 7ft 10s 7s 11 13 mph 1012.9mb 51f 50f
8:50pm 7ft 9s 7s 16 18 mph 1012.4mb 51f 51f
7:50pm 6ft 11s 6s 16 20 mph 1011.2mb 52f 51f
6:50pm 7ft 10s 6s 18 22 mph 1010.7mb 52f 51f
5:50pm 7ft 8s 7s 18 22 mph 1009.9mb 52f 51f
4:50pm 7ft 8s 6s 20 25 mph 1009.4mb 52f 50f
3:50pm 6.5ft 11s 7s 20 22 mph 1009.1mb 52f 50f
2:50pm 6.5ft 11s 8s 18 20 mph 1008.9mb 52f 50f
1:50pm 6ft 11s 8s 13 16 mph 1008.4mb 52f 49f
12:50pm 6ft 11s 8s 7 9 mph 1007.9mb 52f 49f
11:50am 6ft 11s 7s 4 7 mph 1007.2mb 52f 49f
10:50am 6ft 11s 7s 9 11 mph 1006.6mb 51f 48f
9:50am 6ft 12s 7s 9 11 mph 1006.3mb 51f 48f
8:50am 6.5ft 12s 7s 13 16 mph 1006mb 51f 48f
7:50am 7ft 11s 7s 13 16 mph 1005.6mb 51f 47f
6:50am 6.5ft 11s 6s 16 20 mph 1005.3mb 51f 47f
4:50am 7.5ft 12s 7s 13 18 mph 1005.5mb 51f 46f
3:50am 7ft 12s 7s 9 13 mph 1005.7mb 51f 48f
2:50am 7ft 13s 7s 4 9 mph 1006.1mb 51f 46f
1:50am 7ft 11s 7s 9 11 mph 1006.5mb 51f 48f
12:50am 7ft 11s 7s 11 13 mph 1006.7mb 51f 48f
Sun 04/23 11:50pm 8ft 12s 7s 9 11 mph 1007.2mb 51f 48f
10:50pm 8.5ft 13s 7s 13 16 mph 1007.5mb 51f 49f
9:50pm 7ft 11s 7s 11 13 mph 1007.9mb 51f 48f
8:50pm 8ft 11s 7s 16 18 mph 1007.9mb 51f 47f
7:50pm 7.5ft 13s 7s 13 18 mph 1008mb 51f 49f
6:50pm 7.5ft 11s 7s 16 18 mph 1008.4mb 51f 48f
5:50pm 7ft 11s 7s 18 20 mph 1008.6mb 51f 49f
4:50pm 7ft 11s 7s 18 22 mph 1008.9mb 51f 49f
3:50pm 7ft 13s 7s 18 22 mph 1009.1mb 51f 50f
2:50pm 7.5ft 11s 7s 16 18 mph 1009.1mb 51f 49f
1:50pm 7.5ft 12s 7s 16 18 mph 1009.1mb 51f 50f